Accueil
METAR-TAF:

METAR-TAF

Aéroports :

Aéroport de Santo-Pekoa

Luganville, Espiritu Santo, Vanuatu

latitude: 15-31S, longitude: 167-13E, altitude: 41 m

Observation

Le bulletin a été fait il y a 1 heure et 37 minutes, à 22:00 UTC
Vent 9 kt de sud/sud-est
Température 25°C
Humidité 79%
Pression 1014 hPa
Visibilité 10 km ou plus
Nuages épars à une hauteur de 2000 ft
Ciel couvert à une hauteur de 11000 ft

METAR: NVSS 232200Z 15009KT 9999 SCT020 OVC110 25/21 Q1014 RMK NIL

Heure: 10:37 (23:37 UTC)

Prévision

Prévision valable du 23 à 22 UTC au 24 à 20 UTC
Vent 8 kt de sud/sud-est
Visibilité: 9000 m
Nuages épars à une hauteur de 2000 ft
Nuages fragmentés à une hauteur de 4000 ft
Nuages fragmentés à une hauteur de 1800 ft
faibles averses de pluie

TAF: NVSS 232220 2400/2424 15008KT 9999 SCT020 BKN040 INTER 2400/2406 9000 -SHRA BKN018

Observations et prévisions météorologiques de plus de 4000 aéroports (messages METAR et TAF).

Les stations disponibles sont représentées par des disques jaunes et rouges sur la carte.

Passer la souris dessus pour voir le nom de la station.

Cliquer dessus pour voir les observations et prévisions météorologiques.

Pour changer de carte: cliquez sur les boutons verts avec une croix noire pour zoomer, sur le bouton vert avec un tiret pour effectuer un zoom arrière, ou sur les flèches vertes pour les cartes adjacentes.


METAR-TAF: